This is the latest recevied weather packets stored in our database for station/object NY3Q. If no packets are shown the sender has not sent any weather packets the latest 10 day(s).
| Time | Temp. | Humidity | Pressure | Rain* | Wind** | Luminosity | Snow |
|---|---|---|---|---|---|---|---|
| 1777936859 | 23.33° C | 58% | 1016.4 hPa | 0 mm | - | 41 W/m² | - |
| 1777936555 | 23.89° C | 58% | 1016.2 hPa | 0 mm | - | 50 W/m² | - |
| 1777936251 | 23.89° C | 58% | 1016.2 hPa | 0 mm | - | 60 W/m² | - |
| 1777935947 | 23.89° C | 57% | 1016.3 hPa | 0 mm | - | 74 W/m² | - |
| 1777935647 | 23.89° C | 57% | 1016.3 hPa | 0 mm | - | 93 W/m² | - |
| 1777935343 | 23.89° C | 57% | 1016.2 hPa | 0 mm | - | 98 W/m² | - |
| 1777935040 | 23.89° C | 57% | 1016.2 hPa | 0 mm | - | 114 W/m² | - |
| 1777934737 | 23.89° C | 56% | 1016.3 hPa | 0 mm | - | 129 W/m² | - |
| 1777934434 | 24.44° C | 55% | 1016.3 hPa | 0 mm | - | 139 W/m² | - |
| 1777934131 | 25° C | 54% | 1016.4 hPa | 0 mm | - | 163 W/m² | - |
| 1777933827 | 25° C | 55% | 1016.3 hPa | 0 mm | - | 193 W/m² | - |
| 1777933523 | 25° C | 54% | 1016.2 hPa | 0 mm | - | 210 W/m² | - |
| 1777933221 | 25° C | 54% | 1016.3 hPa | 0 mm | - | 245 W/m² | - |
| 1777932918 | 25° C | 53% | 1016.4 hPa | 0 mm | - | 257 W/m² | - |
| 1777932615 | 25° C | 55% | 1016.4 hPa | 0 mm | - | 265 W/m² | - |
| 1777932312 | 25° C | 54% | 1016.2 hPa | 0 mm | - | 278 W/m² | - |
| 1777932009 | 25° C | 55% | 1016.4 hPa | 0 mm | - | 280 W/m² | - |
| 1777931705 | 25° C | 55% | 1016.3 hPa | 0 mm | - | 318 W/m² | - |
| 1777931403 | 25° C | 54% | 1016.2 hPa | 0 mm | - | 315 W/m² | - |
| 1777931098 | 26.11° C | 52% | 1016.4 hPa | 0 mm | - | 329 W/m² | - |
| 1777930795 | 26.11° C | 52% | 1016.4 hPa | 0 mm | - | 344 W/m² | - |
| 1777930491 | 25.56° C | 54% | 1016.4 hPa | 0 mm | - | 381 W/m² | - |
| 1777930189 | 25° C | 54% | 1016.4 hPa | 0 mm | - | 382 W/m² | - |
| 1777929884 | 25° C | 56% | 1016.6 hPa | 0 mm | - | 391 W/m² | - |
| 1777929582 | 26.11° C | 52% | 1016.3 hPa | 0 mm | - | 113 W/m² | - |
* Rain latest hour (hover to see other rain measurements)
** Current wind speed in m/s (hover to see current wind gust speed)